Time;durP1;ratioP1;P1;durP2;ratioP2;P2;SDS_P1;SDS_P2;PMS_P1;PMS_P2;Temp;Humidity;BMP_temperature;BMP_pressure;BME280_temperature;BME280_humidity;BME280_pressure;Samples;Min_cycle;Max_cycle;Signal;HPM_P1;HPM_P2
2021/04/21 00:01:46;;;;;;;;;;;11.30;58.00;;;;;;5033819;28;19921;-76
2021/04/21 00:04:13;;;;;;;;;;;11.20;57.90;;;;;;5033994;28;19921;-76
2021/04/21 00:06:40;;;;;;;;;;;11.20;58.10;;;;;;5032617;28;19921;-76
2021/04/21 00:09:07;;;;;;;;;;;11.20;58.10;;;;;;5032580;28;19925;-76
2021/04/21 00:11:34;;;;;;;;;;;11.20;58.10;;;;;;5035900;28;19921;-77
2021/04/21 00:14:01;;;;;;;;;;;11.20;58.10;;;;;;5052635;28;20320;-76
2021/04/21 00:16:29;;;;;;;;;;;11.30;58.20;;;;;;5035975;28;19936;-76
2021/04/21 00:18:55;;;;;;;;;;;11.20;57.80;;;;;;5033498;28;19924;-76
2021/04/21 00:21:23;;;;;;;;;;;11.30;57.80;;;;;;5032645;28;19921;-76
2021/04/21 00:23:49;;;;;;;;;;;11.30;57.70;;;;;;5033855;28;19921;-75
2021/04/21 00:26:16;;;;;;;;;;;11.30;57.70;;;;;;5033300;28;19921;-78
2021/04/21 00:28:42;;;;;;;;;;;11.30;57.50;;;;;;5033154;28;19928;-74
2021/04/21 00:31:11;;;;;;;;;;;11.30;57.60;;;;;;5032572;28;19921;-77
2021/04/21 00:33:41;;;;;;;;;;;11.30;57.70;;;;;;5032745;28;19967;-77
2021/04/21 00:36:10;;;;;;;;;;;11.30;57.70;;;;;;5031764;28;20036;-76
2021/04/21 00:38:38;;;;;;;;;;;11.30;57.80;;;;;;5025650;28;19921;-77
2021/04/21 00:41:07;;;;;;;;;;;11.20;57.60;;;;;;5033520;28;19921;-77
2021/04/21 00:43:37;;;;;;;;;;;11.20;57.60;;;;;;5033418;28;19925;-75
2021/04/21 00:46:11;;;;;;;;;;;11.20;57.70;;;;;;5040088;28;19921;-77
2021/04/21 00:48:52;;;;;;;;;;;11.10;57.70;;;;;;5030482;28;19928;-77
2021/04/21 00:51:24;;;;;;;;;;;11.10;57.70;;;;;;5030275;28;19922;-78
2021/04/21 00:53:53;;;;;;;;;;;11.00;57.70;;;;;;5032883;28;19929;-78
2021/04/21 00:56:23;;;;;;;;;;;11.00;57.70;;;;;;5032858;28;19921;-77
2021/04/21 00:58:58;;;;;;;;;;;11.00;57.70;;;;;;5046835;28;20319;-77
2021/04/21 01:01:24;;;;;;;;;;;10.90;57.80;;;;;;5036211;28;19921;-78
2021/04/21 01:03:52;;;;;;;;;;;10.90;57.80;;;;;;5030940;28;19933;-78
2021/04/21 01:06:20;;;;;;;;;;;10.90;57.80;;;;;;5032137;28;20000;-79
2021/04/21 01:08:49;;;;;;;;;;;10.90;57.80;;;;;;5032854;28;19921;-76
2021/04/21 01:11:18;;;;;;;;;;;10.80;57.70;;;;;;5039776;28;19928;-78
2021/04/21 01:13:47;;;;;;;;;;;10.80;57.80;;;;;;5032812;28;20415;-78
2021/04/21 01:16:13;;;;;;;;;;;10.80;57.90;;;;;;5031826;28;20385;-77
2021/04/21 01:18:41;;;;;;;;;;;10.70;57.80;;;;;;5032092;28;19921;-77
2021/04/21 01:21:09;;;;;;;;;;;10.70;58.00;;;;;;5032732;28;19927;-77
2021/04/21 01:23:50;;;;;;;;;;;10.70;57.90;;;;;;5032388;28;20257;-78
2021/04/21 01:26:22;;;;;;;;;;;10.70;57.90;;;;;;5029916;28;20019;-78
2021/04/21 01:28:51;;;;;;;;;;;10.70;57.90;;;;;;5032306;28;20024;-78
2021/04/21 01:31:19;;;;;;;;;;;10.60;58.00;;;;;;5030959;28;20316;-78
2021/04/21 01:33:46;;;;;;;;;;;10.60;58.00;;;;;;5032270;28;19925;-78
2021/04/21 01:36:14;;;;;;;;;;;10.60;58.20;;;;;;5034688;28;19988;-76
2021/04/21 01:38:40;;;;;;;;;;;10.50;58.20;;;;;;5032284;28;19995;-75
2021/04/21 01:41:07;;;;;;;;;;;10.50;58.20;;;;;;5032612;28;20360;-76
2021/04/21 01:43:35;;;;;;;;;;;10.50;58.10;;;;;;5024563;28;19971;-76
2021/04/21 01:46:03;;;;;;;;;;;10.50;58.30;;;;;;5031443;28;20026;-76
2021/04/21 01:48:32;;;;;;;;;;;10.50;58.20;;;;;;5032549;28;19975;-76
2021/04/21 01:50:59;;;;;;;;;;;10.50;58.10;;;;;;5031864;28;19967;-77
2021/04/21 01:53:30;;;;;;;;;;;10.50;58.10;;;;;;5034874;28;19921;-76
2021/04/21 01:56:00;;;;;;;;;;;10.40;58.10;;;;;;5030973;28;19921;-76
2021/04/21 01:58:31;;;;;;;;;;;10.50;58.20;;;;;;5032544;28;20281;-76
2021/04/21 02:01:01;;;;;;;;;;;10.40;58.20;;;;;;5031054;28;19921;-77
2021/04/21 02:03:31;;;;;;;;;;;10.40;58.30;;;;;;5032474;28;20255;-76
2021/04/21 02:06:22;;;;;;;;;;;10.40;58.30;;;;;;5032635;28;20011;-76
2021/04/21 02:08:55;;;;;;;;;;;10.40;58.40;;;;;;5032019;28;20258;-77
2021/04/21 02:11:23;;;;;;;;;;;10.30;58.40;;;;;;5033439;28;19940;-76
2021/04/21 02:14:01;;;;;;;;;;;10.30;58.40;;;;;;5048177;28;19921;-77
2021/04/21 02:16:34;;;;;;;;;;;10.30;58.40;;;;;;5031986;28;19929;-77
2021/04/21 02:19:05;;;;;;;;;;;10.30;58.50;;;;;;5032376;28;19921;-77
2021/04/21 02:21:35;;;;;;;;;;;10.30;58.40;;;;;;5035165;28;19928;-77
2021/04/21 02:24:04;;;;;;;;;;;10.20;58.30;;;;;;5033787;28;19979;-76
2021/04/21 02:26:35;;;;;;;;;;;10.20;58.30;;;;;;5035761;28;19921;-77
2021/04/21 02:29:03;;;;;;;;;;;10.20;58.30;;;;;;5034846;28;19925;-77
2021/04/21 02:31:34;;;;;;;;;;;10.20;58.40;;;;;;5035342;28;20305;-78
2021/04/21 02:34:03;;;;;;;;;;;10.20;58.50;;;;;;5035528;28;19947;-78
2021/04/21 02:36:37;;;;;;;;;;;10.20;58.60;;;;;;5035060;28;19921;-76
2021/04/21 02:39:06;;;;;;;;;;;10.10;58.70;;;;;;5035596;28;20023;-78
2021/04/21 02:41:39;;;;;;;;;;;10.10;58.70;;;;;;5035478;28;19921;-77
2021/04/21 02:44:10;;;;;;;;;;;10.10;58.70;;;;;;5034294;28;19921;-77
2021/04/21 02:46:39;;;;;;;;;;;10.10;58.80;;;;;;5034517;28;20064;-77
2021/04/21 02:49:12;;;;;;;;;;;10.10;58.80;;;;;;5034686;28;19925;-76
2021/04/21 02:51:45;;;;;;;;;;;10.10;58.90;;;;;;5034570;28;19925;-76
2021/04/21 02:54:12;;;;;;;;;;;10.10;58.80;;;;;;5035031;28;19928;-76
2021/04/21 02:56:40;;;;;;;;;;;10.10;58.80;;;;;;5035409;28;19928;-77
2021/04/21 02:59:12;;;;;;;;;;;10.00;58.60;;;;;;5034848;28;20641;-77
2021/04/21 03:01:41;;;;;;;;;;;10.00;58.70;;;;;;5034489;28;19928;-77
2021/04/21 03:04:13;;;;;;;;;;;10.00;58.80;;;;;;5034863;28;20376;-77
2021/04/21 03:06:43;;;;;;;;;;;10.00;58.90;;;;;;5039812;28;20002;-76
2021/04/21 03:09:11;;;;;;;;;;;9.90;59.70;;;;;;5043650;28;19925;-77
2021/04/21 03:11:37;;;;;;;;;;;9.90;59.80;;;;;;5034915;28;19925;-77
2021/04/21 03:14:04;;;;;;;;;;;9.90;59.90;;;;;;5033951;28;19921;-77
2021/04/21 03:16:33;;;;;;;;;;;9.80;59.90;;;;;;5032464;28;19933;-77
2021/04/21 03:19:00;;;;;;;;;;;9.80;60.00;;;;;;5034779;28;19937;-77
2021/04/21 03:21:28;;;;;;;;;;;9.80;60.00;;;;;;5032598;28;19971;-76
2021/04/21 03:23:57;;;;;;;;;;;9.80;60.10;;;;;;5030409;28;20336;-76
2021/04/21 03:26:24;;;;;;;;;;;9.70;60.10;;;;;;5035049;28;20024;-76
2021/04/21 03:28:54;;;;;;;;;;;9.80;60.10;;;;;;5040800;28;19925;-76
2021/04/21 03:31:22;;;;;;;;;;;9.70;60.00;;;;;;5034892;28;19924;-76
2021/04/21 03:33:50;;;;;;;;;;;9.70;60.10;;;;;;5028054;28;19928;-78
2021/04/21 03:36:18;;;;;;;;;;;9.70;60.20;;;;;;5029162;28;19921;-77
2021/04/21 03:38:44;;;;;;;;;;;9.70;60.20;;;;;;5034288;28;19921;-76
2021/04/21 03:41:12;;;;;;;;;;;9.70;60.20;;;;;;5027221;28;20435;-76
2021/04/21 03:43:39;;;;;;;;;;;9.70;60.00;;;;;;5032750;28;20337;-76
2021/04/21 03:46:05;;;;;;;;;;;9.70;60.00;;;;;;5025363;28;19921;-77
2021/04/21 03:48:32;;;;;;;;;;;9.70;60.10;;;;;;5032744;28;20328;-77
2021/04/21 03:50:59;;;;;;;;;;;9.60;60.10;;;;;;5028781;28;19927;-78
2021/04/21 03:53:28;;;;;;;;;;;9.60;60.20;;;;;;5033796;28;20037;-76
2021/04/21 03:55:56;;;;;;;;;;;9.60;60.30;;;;;;5033266;28;19924;-77
2021/04/21 03:58:25;;;;;;;;;;;9.60;60.20;;;;;;5033908;28;19921;-77
2021/04/21 04:00:56;;;;;;;;;;;9.60;60.30;;;;;;5028856;28;19929;-77
2021/04/21 04:03:23;;;;;;;;;;;9.60;60.30;;;;;;5025984;28;19952;-77
2021/04/21 04:05:57;;;;;;;;;;;9.60;60.50;;;;;;5042230;28;19929;-74
2021/04/21 04:08:26;;;;;;;;;;;9.60;60.60;;;;;;5041436;28;20016;-75
2021/04/21 04:10:53;;;;;;;;;;;9.50;60.50;;;;;;5017316;28;19921;-75
2021/04/21 04:13:20;;;;;;;;;;;9.60;60.60;;;;;;5027670;28;19921;-75
2021/04/21 04:15:48;;;;;;;;;;;9.50;60.50;;;;;;5034053;28;19975;-77
2021/04/21 04:18:15;;;;;;;;;;;9.50;60.70;;;;;;5035134;28;19967;-76
2021/04/21 04:20:42;;;;;;;;;;;9.50;60.80;;;;;;5022652;28;19967;-76
2021/04/21 04:23:09;;;;;;;;;;;9.40;60.80;;;;;;5033673;28;19951;-76
2021/04/21 04:25:37;;;;;;;;;;;9.40;60.90;;;;;;5020799;28;19921;-76
2021/04/21 04:28:04;;;;;;;;;;;9.40;61.00;;;;;;5031055;28;19925;-77
2021/04/21 04:30:31;;;;;;;;;;;9.30;60.90;;;;;;5042320;28;19924;-76
2021/04/21 04:32:59;;;;;;;;;;;9.30;61.00;;;;;;5033945;28;19928;-76
2021/04/21 04:35:26;;;;;;;;;;;9.30;61.10;;;;;;5039094;28;19966;-77
2021/04/21 04:37:56;;;;;;;;;;;9.30;61.10;;;;;;5025416;28;19922;-76
2021/04/21 04:40:23;;;;;;;;;;;9.30;61.10;;;;;;5019049;28;19921;-77
2021/04/21 04:42:49;;;;;;;;;;;9.30;60.90;;;;;;5027274;28;19933;-76
2021/04/21 04:45:15;;;;;;;;;;;9.30;61.00;;;;;;5029968;28;19921;-77
2021/04/21 04:47:43;;;;;;;;;;;9.30;61.10;;;;;;5030078;28;19926;-76
2021/04/21 04:50:11;;;;;;;;;;;9.30;61.10;;;;;;5023484;28;20032;-77
2021/04/21 04:52:38;;;;;;;;;;;9.30;61.20;;;;;;5029563;28;19937;-77
2021/04/21 04:55:05;;;;;;;;;;;9.40;61.40;;;;;;5028930;28;19925;-77
2021/04/21 04:57:32;;;;;;;;;;;9.40;61.40;;;;;;5030729;28;19921;-76
2021/04/21 04:59:59;;;;;;;;;;;9.30;61.30;;;;;;5031873;28;19925;-74
2021/04/21 05:02:26;;;;;;;;;;;9.30;61.30;;;;;;5026093;28;20024;-76
2021/04/21 05:04:56;;;;;;;;;;;9.40;61.40;;;;;;5028435;28;19991;-76
2021/04/21 05:07:24;;;;;;;;;;;9.40;61.40;;;;;;5040583;28;19921;-77
2021/04/21 05:09:51;;;;;;;;;;;9.40;61.50;;;;;;5034044;28;19921;-77
2021/04/21 05:12:21;;;;;;;;;;;9.40;61.60;;;;;;5031523;28;20281;-77
2021/04/21 05:14:49;;;;;;;;;;;9.40;61.60;;;;;;5019437;28;19996;-77
2021/04/21 05:17:36;;;;;;;;;;;9.40;61.60;;;;;;5032181;28;19921;-77
2021/04/21 05:20:21;;;;;;;;;;;9.50;61.60;;;;;;5003281;28;19920;-77
2021/04/21 05:23:08;;;;;;;;;;;9.50;61.50;;;;;;5046387;28;19971;-80
2021/04/21 05:25:53;;;;;;;;;;;9.60;61.50;;;;;;5037138;28;19921;-80
2021/04/21 05:28:37;;;;;;;;;;;9.60;61.40;;;;;;5048893;28;19927;-79
2021/04/21 05:31:21;;;;;;;;;;;9.70;61.40;;;;;;4997680;28;19921;-79
2021/04/21 05:34:18;;;;;;;;;;;9.80;61.40;;;;;;5019353;28;19922;-78
2021/04/21 05:37:05;;;;;;;;;;;9.90;61.30;;;;;;4987586;28;19922;-87
2021/04/21 05:48:57;;;;;;;;;;;10.20;59.80;;;;;;5021302;28;19924;-84
2021/04/21 05:54:35;;;;;;;;;;;10.40;59.80;;;;;;4968535;28;20354;-80
2021/04/21 05:57:20;;;;;;;;;;;10.50;60.40;;;;;;5025737;28;19921;-80
2021/04/21 06:00:03;;;;;;;;;;;10.60;59.60;;;;;;5048214;28;19927;-78
2021/04/21 06:02:30;;;;;;;;;;;10.70;59.60;;;;;;5024465;28;19944;-81
2021/04/21 06:05:06;;;;;;;;;;;10.80;59.50;;;;;;5016257;28;19929;-80
2021/04/21 06:07:34;;;;;;;;;;;10.90;59.50;;;;;;5023833;28;20420;-80
2021/04/21 06:10:00;;;;;;;;;;;11.00;59.50;;;;;;5024238;28;19921;-79
2021/04/21 06:12:26;;;;;;;;;;;11.00;59.40;;;;;;5031272;28;19956;-81
2021/04/21 06:14:56;;;;;;;;;;;11.10;59.30;;;;;;5029078;28;19929;-82
2021/04/21 06:20:33;;;;;;;;;;;11.30;59.20;;;;;;5041389;28;19966;-81
2021/04/21 06:23:27;;;;;;;;;;;11.40;59.20;;;;;;5051158;28;19928;-83
2021/04/21 06:26:01;;;;;;;;;;;11.60;59.20;;;;;;5043098;28;19999;-82
2021/04/21 06:28:28;;;;;;;;;;;11.70;59.10;;;;;;5034984;28;19921;-80
2021/04/21 06:31:06;;;;;;;;;;;11.80;59.00;;;;;;5030208;28;19921;-82
2021/04/21 06:33:34;;;;;;;;;;;11.90;58.90;;;;;;5024006;28;19928;-80
2021/04/21 06:36:00;;;;;;;;;;;12.10;58.80;;;;;;5024595;28;19921;-80
2021/04/21 06:38:45;;;;;;;;;;;12.20;58.40;;;;;;5027473;28;20318;-83
2021/04/21 06:41:13;;;;;;;;;;;12.30;58.30;;;;;;5043649;28;19925;-77
2021/04/21 06:43:42;;;;;;;;;;;12.50;58.20;;;;;;5048147;28;19928;-81
2021/04/21 06:46:10;;;;;;;;;;;12.60;58.00;;;;;;5055037;28;19975;-79
2021/04/21 06:48:38;;;;;;;;;;;12.70;57.80;;;;;;5044777;28;19920;-82
2021/04/21 06:51:19;;;;;;;;;;;12.80;57.70;;;;;;5043099;28;19924;-82
2021/04/21 06:53:46;;;;;;;;;;;12.90;57.40;;;;;;5053262;28;20289;-80
2021/04/21 06:56:14;;;;;;;;;;;13.10;57.30;;;;;;5044176;28;19921;-81
2021/04/21 07:02:09;;;;;;;;;;;13.50;56.90;;;;;;4995381;28;19945;-82
2021/04/21 07:04:36;;;;;;;;;;;13.70;56.50;;;;;;5033407;28;20040;-80
2021/04/21 07:07:51;;;;;;;;;;;13.80;56.10;;;;;;5041854;28;19921;-86
2021/04/21 07:10:17;;;;;;;;;;;13.90;56.00;;;;;;5049943;28;19932;-81
2021/04/21 07:12:57;;;;;;;;;;;14.10;55.70;;;;;;5048471;28;20435;-82
2021/04/21 07:28:04;;;;;;;;;;;15.00;54.00;;;;;;4909859;29;19930;-83
2021/04/21 07:30:33;;;;;;;;;;;15.10;53.70;;;;;;4987016;28;19925;-80
2021/04/21 07:33:00;;;;;;;;;;;15.30;53.20;;;;;;5034014;28;19921;-81
2021/04/21 07:35:33;;;;;;;;;;;15.40;52.70;;;;;;5033571;28;20377;-80
2021/04/21 07:38:00;;;;;;;;;;;15.60;52.50;;;;;;5033951;28;20015;-80
2021/04/21 07:40:33;;;;;;;;;;;15.70;52.20;;;;;;5033523;28;19944;-81
2021/04/21 07:43:07;;;;;;;;;;;15.80;51.70;;;;;;5034106;28;19921;-80
2021/04/21 07:45:51;;;;;;;;;;;16.00;51.40;;;;;;5032349;28;19971;-81
2021/04/21 07:48:45;;;;;;;;;;;16.10;51.30;;;;;;5033977;28;19921;-84
2021/04/21 08:22:42;;;;;;;;;;;17.70;47.60;;;;;;4859266;29;20441;-85
2021/04/21 09:07:01;;;;;;;;;;;18.40;44.00;;;;;;4857235;29;19974;-83
2021/04/21 12:34:32;;;;;;;;;;;24.10;25.70;;;;;;4826981;29;19919;-82
2021/04/21 12:43:12;;;;;;;;;;;23.50;26.80;;;;;;4930290;28;19925;-84
2021/04/21 12:49:05;;;;;;;;;;;23.00;27.00;;;;;;4953266;28;19972;-86
2021/04/21 12:51:50;;;;;;;;;;;22.90;26.70;;;;;;4944661;28;19922;-85
2021/04/21 12:57:46;;;;;;;;;;;22.80;26.60;;;;;;4967730;28;19997;-82
2021/04/21 13:00:26;;;;;;;;;;;22.90;26.40;;;;;;5027030;28;19957;-84
2021/04/21 13:02:53;;;;;;;;;;;22.70;26.40;;;;;;5030299;28;19949;-80
2021/04/21 13:05:38;;;;;;;;;;;22.70;26.70;;;;;;5032402;28;19925;-82
2021/04/21 13:08:54;;;;;;;;;;;22.60;26.70;;;;;;5032049;28;19925;-83
2021/04/21 13:11:31;;;;;;;;;;;22.70;27.00;;;;;;5032708;28;19921;-79
2021/04/21 13:13:57;;;;;;;;;;;22.90;26.90;;;;;;5031136;28;19921;-82
2021/04/21 13:19:27;;;;;;;;;;;22.90;26.40;;;;;;5022804;28;20324;-80
2021/04/21 13:21:58;;;;;;;;;;;22.80;26.50;;;;;;5031684;28;19925;-82
2021/04/21 13:24:24;;;;;;;;;;;22.90;26.80;;;;;;5031893;28;19943;-81
2021/04/21 13:26:53;;;;;;;;;;;23.00;26.60;;;;;;5031425;28;19928;-78
2021/04/21 13:29:29;;;;;;;;;;;23.10;26.10;;;;;;5030273;28;19925;-80
2021/04/21 13:32:07;;;;;;;;;;;23.20;25.90;;;;;;5032737;28;19929;-79
2021/04/21 13:34:33;;;;;;;;;;;23.00;25.80;;;;;;5031851;28;19940;-81
2021/04/21 13:37:00;;;;;;;;;;;22.70;26.30;;;;;;5032708;28;19944;-79
2021/04/21 13:39:26;;;;;;;;;;;22.50;26.70;;;;;;5032525;28;19925;-77
2021/04/21 13:41:53;;;;;;;;;;;22.40;27.20;;;;;;5040402;28;19929;-80
2021/04/21 13:44:20;;;;;;;;;;;22.50;27.20;;;;;;5035027;28;20327;-79
2021/04/21 13:46:52;;;;;;;;;;;22.60;27.10;;;;;;5052373;28;20361;-83
2021/04/21 13:49:19;;;;;;;;;;;22.70;27.40;;;;;;5045094;28;19925;-79
2021/04/21 13:51:46;;;;;;;;;;;22.80;27.20;;;;;;5031064;28;20274;-78
2021/04/21 13:54:12;;;;;;;;;;;22.70;27.30;;;;;;5037179;28;19927;-80
2021/04/21 13:56:42;;;;;;;;;;;22.60;27.20;;;;;;5030764;28;19928;-79
2021/04/21 13:59:11;;;;;;;;;;;22.50;27.00;;;;;;5032673;28;19921;-79
2021/04/21 14:01:40;;;;;;;;;;;22.30;27.00;;;;;;5031676;28;19965;-79
2021/04/21 14:04:06;;;;;;;;;;;22.30;27.10;;;;;;5031179;28;19928;-78
2021/04/21 14:06:39;;;;;;;;;;;22.40;27.50;;;;;;5028583;28;20370;-80
2021/04/21 14:09:06;;;;;;;;;;;22.50;27.70;;;;;;5026088;28;20392;-80
2021/04/21 14:11:32;;;;;;;;;;;22.70;27.80;;;;;;5032340;28;19925;-79
2021/04/21 14:13:58;;;;;;;;;;;22.80;27.70;;;;;;5035055;28;19925;-78
2021/04/21 14:16:25;;;;;;;;;;;22.80;28.00;;;;;;5035852;28;19924;-78
2021/04/21 14:21:56;;;;;;;;;;;22.70;28.50;;;;;;5034003;28;19928;-80
2021/04/21 14:24:26;;;;;;;;;;;22.60;28.80;;;;;;5048520;28;20277;-81
2021/04/21 14:26:52;;;;;;;;;;;22.50;28.90;;;;;;5044172;28;19929;-79
2021/04/21 14:29:18;;;;;;;;;;;22.50;28.90;;;;;;5055640;28;20383;-79
2021/04/21 14:31:45;;;;;;;;;;;22.50;28.80;;;;;;5036552;28;20312;-79
2021/04/21 14:34:12;;;;;;;;;;;22.40;28.70;;;;;;5036673;28;20292;-84
2021/04/21 14:36:42;;;;;;;;;;;22.30;28.80;;;;;;5055409;28;19925;-80
2021/04/21 14:39:08;;;;;;;;;;;22.30;29.00;;;;;;5048210;28;19975;-80
2021/04/21 14:41:35;;;;;;;;;;;22.30;28.90;;;;;;5035357;28;19921;-83
2021/04/21 14:44:02;;;;;;;;;;;22.30;28.80;;;;;;5035157;28;20313;-82
2021/04/21 14:46:33;;;;;;;;;;;22.30;29.10;;;;;;5034693;28;19921;-82
2021/04/21 14:49:00;;;;;;;;;;;22.30;29.00;;;;;;5034969;28;19922;-80
2021/04/21 14:51:28;;;;;;;;;;;22.40;28.90;;;;;;5033469;28;19934;-81
2021/04/21 14:53:55;;;;;;;;;;;22.50;28.70;;;;;;5033940;28;19920;-81
2021/04/21 14:56:29;;;;;;;;;;;22.50;28.40;;;;;;5034859;28;19925;-84
2021/04/21 14:58:59;;;;;;;;;;;22.40;28.10;;;;;;5035166;28;19925;-83
2021/04/21 15:02:02;;;;;;;;;;;22.30;28.30;;;;;;5034183;28;19927;-85
2021/04/21 15:04:33;;;;;;;;;;;22.10;28.40;;;;;;5034633;28;19921;-82
2021/04/21 15:09:52;;;;;;;;;;;21.80;28.30;;;;;;5024340;28;19961;-84
2021/04/21 15:12:18;;;;;;;;;;;21.50;28.60;;;;;;5034294;28;19921;-82
2021/04/21 15:14:45;;;;;;;;;;;21.40;28.90;;;;;;5034124;28;20020;-82
2021/04/21 15:17:16;;;;;;;;;;;21.30;29.20;;;;;;5032871;28;19921;-82
2021/04/21 15:19:45;;;;;;;;;;;21.20;29.70;;;;;;5034238;28;19979;-82
2021/04/21 15:22:12;;;;;;;;;;;21.20;29.90;;;;;;5034997;28;19937;-80
2021/04/21 15:24:52;;;;;;;;;;;21.20;30.10;;;;;;5033287;28;20428;-84
2021/04/21 15:27:21;;;;;;;;;;;21.10;30.10;;;;;;5013972;28;19952;-83
2021/04/21 15:30:21;;;;;;;;;;;;;;;;;;;;;
2021/04/21 15:32:50;;;;;;;;;;;21.10;30.40;;;;;;5026028;28;19921;-81
2021/04/21 15:35:18;;;;;;;;;;;21.00;30.40;;;;;;5033998;28;20420;-84
2021/04/21 15:37:45;;;;;;;;;;;21.00;30.70;;;;;;5034180;28;19925;-79
2021/04/21 15:40:15;;;;;;;;;;;21.00;31.20;;;;;;5033875;28;19946;-79
2021/04/21 15:42:43;;;;;;;;;;;21.00;31.40;;;;;;5033015;28;19948;-81
2021/04/21 15:45:10;;;;;;;;;;;21.10;31.40;;;;;;5033273;28;20350;-79
2021/04/21 15:47:36;;;;;;;;;;;21.10;31.20;;;;;;5033803;28;19928;-79
2021/04/21 15:50:03;;;;;;;;;;;21.00;31.20;;;;;;5033753;28;19932;-79
2021/04/21 15:52:31;;;;;;;;;;;21.00;31.20;;;;;;5033778;28;19925;-79
2021/04/21 15:54:57;;;;;;;;;;;21.10;31.40;;;;;;5033956;28;19924;-79
2021/04/21 15:57:23;;;;;;;;;;;21.10;31.10;;;;;;5033864;28;19921;-82
2021/04/21 15:59:50;;;;;;;;;;;21.10;30.90;;;;;;5033466;28;20416;-81
2021/04/21 16:02:16;;;;;;;;;;;21.00;31.00;;;;;;5033553;28;20273;-81
2021/04/21 16:04:50;;;;;;;;;;;21.00;31.60;;;;;;5033895;28;19952;-83
2021/04/21 16:07:17;;;;;;;;;;;20.90;31.70;;;;;;5032236;28;20000;-81
2021/04/21 16:09:53;;;;;;;;;;;20.90;31.40;;;;;;5031379;28;20027;-82
2021/04/21 16:12:47;;;;;;;;;;;20.90;31.90;;;;;;5033645;28;19966;-83
2021/04/21 16:15:14;;;;;;;;;;;20.80;32.20;;;;;;5033261;28;20016;-81
2021/04/21 16:18:24;;;;;;;;;;;20.80;32.50;;;;;;5033211;28;19967;-84
2021/04/21 16:21:12;;;;;;;;;;;20.80;32.40;;;;;;5028928;28;19921;-82
2021/04/21 16:23:38;;;;;;;;;;;20.80;32.60;;;;;;5032220;28;20008;-82
2021/04/21 16:26:05;;;;;;;;;;;20.80;32.60;;;;;;5032522;28;19921;-80
2021/04/21 16:28:32;;;;;;;;;;;20.90;32.40;;;;;;5032099;28;19921;-81
2021/04/21 16:30:59;;;;;;;;;;;20.80;32.10;;;;;;5032751;28;19967;-81
2021/04/21 16:33:29;;;;;;;;;;;20.80;31.90;;;;;;5033118;28;19925;-81
2021/04/21 16:36:09;;;;;;;;;;;20.70;32.50;;;;;;5031600;28;19925;-83
2021/04/21 16:38:39;;;;;;;;;;;20.60;32.50;;;;;;5025813;28;19921;-83
2021/04/21 16:43:50;;;;;;;;;;;20.50;33.30;;;;;;5030818;28;19921;-83
2021/04/21 16:46:16;;;;;;;;;;;20.40;33.10;;;;;;5032803;28;19921;-82
2021/04/21 16:48:46;;;;;;;;;;;20.40;33.60;;;;;;5032382;28;19966;-85
2021/04/21 16:51:32;;;;;;;;;;;20.30;34.10;;;;;;5032450;28;19921;-83
2021/04/21 16:54:03;;;;;;;;;;;20.20;34.50;;;;;;5032097;28;19933;-83
2021/04/21 16:56:32;;;;;;;;;;;20.10;34.10;;;;;;5032233;28;20350;-83
2021/04/21 17:02:15;;;;;;;;;;;19.90;33.40;;;;;;5030416;28;20278;-83
2021/04/21 17:04:45;;;;;;;;;;;19.90;33.40;;;;;;5023815;28;20021;-81
2021/04/21 17:07:12;;;;;;;;;;;19.80;34.20;;;;;;5031943;28;19932;-81
2021/04/21 17:09:39;;;;;;;;;;;19.80;34.50;;;;;;5032170;28;19925;-81
2021/04/21 17:12:08;;;;;;;;;;;19.70;34.40;;;;;;5032405;28;20269;-80
2021/04/21 17:14:34;;;;;;;;;;;19.60;34.70;;;;;;5025355;28;19921;-81
2021/04/21 17:52:59;;;;;;;;;;;19.10;37.00;;;;;;4753026;30;19990;-84
2021/04/21 17:55:41;;;;;;;;;;;19.10;37.30;;;;;;4735656;30;20010;-84
2021/04/21 18:01:11;;;;;;;;;;;19.00;37.50;;;;;;4787768;29;19920;-80
2021/04/21 18:03:40;;;;;;;;;;;18.90;37.60;;;;;;4819523;29;19931;-81
2021/04/21 18:06:07;;;;;;;;;;;18.90;37.60;;;;;;4963849;28;20293;-82
2021/04/21 18:08:33;;;;;;;;;;;18.90;37.70;;;;;;5053250;28;19920;-81
2021/04/21 18:11:00;;;;;;;;;;;18.90;37.80;;;;;;5037850;28;20013;-82
2021/04/21 18:13:27;;;;;;;;;;;18.90;38.40;;;;;;5029191;28;19939;-83
2021/04/21 18:15:56;;;;;;;;;;;18.80;37.80;;;;;;5042289;28;20277;-82
2021/04/21 18:18:23;;;;;;;;;;;18.80;38.10;;;;;;5044192;28;19921;-81
2021/04/21 18:20:50;;;;;;;;;;;18.80;38.30;;;;;;5038677;28;20012;-81
2021/04/21 18:23:22;;;;;;;;;;;18.70;38.30;;;;;;5050021;28;19925;-83
2021/04/21 18:25:57;;;;;;;;;;;18.70;38.40;;;;;;5041546;28;19921;-82
2021/04/21 18:28:26;;;;;;;;;;;18.70;38.70;;;;;;5036450;28;19934;-82
2021/04/21 18:30:53;;;;;;;;;;;18.70;38.90;;;;;;5034528;28;19925;-82
2021/04/21 18:33:22;;;;;;;;;;;18.60;39.10;;;;;;5035666;28;19925;-82
2021/04/21 18:38:50;;;;;;;;;;;18.50;39.40;;;;;;5031688;28;19921;-83
2021/04/21 18:41:19;;;;;;;;;;;18.50;39.60;;;;;;5015578;28;19948;-83
2021/04/21 18:43:46;;;;;;;;;;;18.50;39.80;;;;;;5042860;28;19928;-81
2021/04/21 18:46:12;;;;;;;;;;;18.40;39.90;;;;;;5042252;28;19927;-83
2021/04/21 18:48:57;;;;;;;;;;;18.40;40.10;;;;;;5053038;28;19983;-84
2021/04/21 18:51:44;;;;;;;;;;;18.40;40.20;;;;;;5049179;28;20372;-85
2021/04/21 18:54:12;;;;;;;;;;;18.30;40.20;;;;;;5041106;28;19921;-82
2021/04/21 18:56:39;;;;;;;;;;;18.30;40.30;;;;;;5051568;28;19920;-82
2021/04/21 18:59:05;;;;;;;;;;;18.20;40.20;;;;;;5045532;28;20362;-81
2021/04/21 19:01:33;;;;;;;;;;;18.10;40.30;;;;;;5050777;28;19925;-81
2021/04/21 19:03:59;;;;;;;;;;;18.10;40.50;;;;;;5052754;28;20254;-81
2021/04/21 19:19:45;;;;;;;;;;;;;;;;;;;;;
2021/04/21 19:28:36;;;;;;;;;;;17.50;41.40;;;;;;4916502;29;19971;-83
2021/04/21 19:52:38;;;;;;;;;;;17.00;43.20;;;;;;4894062;29;19967;-82
2021/04/21 19:55:58;;;;;;;;;;;17.00;43.40;;;;;;4942517;28;19934;-84
2021/04/21 19:58:42;;;;;;;;;;;17.00;43.60;;;;;;4941038;29;19922;-85
2021/04/21 20:01:11;;;;;;;;;;;16.90;43.80;;;;;;4987085;28;19928;-82
2021/04/21 20:03:40;;;;;;;;;;;16.90;43.80;;;;;;5033684;28;20365;-83
2021/04/21 20:06:11;;;;;;;;;;;16.90;43.80;;;;;;5033427;28;19968;-82
2021/04/21 20:08:42;;;;;;;;;;;16.90;43.80;;;;;;4998072;28;20343;-83
2021/04/21 20:11:08;;;;;;;;;;;16.80;43.70;;;;;;5028499;28;20012;-83
2021/04/21 20:13:35;;;;;;;;;;;16.80;43.80;;;;;;5034088;28;19935;-82
2021/04/21 20:16:01;;;;;;;;;;;16.80;43.80;;;;;;5034154;28;19921;-82
2021/04/21 20:18:34;;;;;;;;;;;16.80;43.90;;;;;;5033932;28;19921;-82
2021/04/21 20:21:00;;;;;;;;;;;16.80;44.00;;;;;;5019861;28;19928;-82
2021/04/21 20:23:26;;;;;;;;;;;16.80;44.30;;;;;;5014134;28;19925;-82
2021/04/21 20:25:54;;;;;;;;;;;16.80;44.20;;;;;;5013839;28;20266;-81
2021/04/21 20:28:20;;;;;;;;;;;16.80;44.20;;;;;;5013998;28;19921;-82
2021/04/21 20:30:46;;;;;;;;;;;16.80;44.30;;;;;;5020124;28;19994;-81
2021/04/21 20:33:15;;;;;;;;;;;16.70;44.40;;;;;;5033528;28;19975;-81
2021/04/21 20:35:43;;;;;;;;;;;16.70;44.60;;;;;;5032943;28;19928;-82
2021/04/21 20:38:10;;;;;;;;;;;16.70;44.70;;;;;;5032632;28;20383;-81
2021/04/21 20:40:36;;;;;;;;;;;16.70;44.70;;;;;;5031689;28;19921;-81
2021/04/21 20:43:04;;;;;;;;;;;16.60;44.80;;;;;;5033239;28;19921;-82
2021/04/21 20:45:33;;;;;;;;;;;16.60;44.90;;;;;;5046970;28;20080;-82
2021/04/21 20:50:40;;;;;;;;;;;16.50;45.00;;;;;;5045677;28;19937;-81
2021/04/21 20:53:12;;;;;;;;;;;16.50;45.20;;;;;;5050187;28;19925;-83
2021/04/21 20:55:39;;;;;;;;;;;16.50;45.30;;;;;;5045750;28;19975;-83
2021/04/21 21:17:53;;;;;;;;;;;16.00;46.50;;;;;;4837467;29;19969;-84
2021/04/21 21:26:15;;;;;;;;;;;15.80;47.20;;;;;;4851106;29;20033;-83
2021/04/21 21:32:13;;;;;;;;;;;15.70;47.70;;;;;;4869547;29;20112;-84
2021/04/21 21:34:42;;;;;;;;;;;15.70;48.00;;;;;;4880003;29;19934;-83
2021/04/21 21:37:40;;;;;;;;;;;15.60;48.70;;;;;;4909010;28;19971;-85
2021/04/21 21:40:13;;;;;;;;;;;15.50;48.20;;;;;;5056355;28;19960;-83
2021/04/21 21:46:17;;;;;;;;;;;15.40;48.60;;;;;;5038343;28;19967;-85
2021/04/21 21:49:15;;;;;;;;;;;15.40;48.80;;;;;;5056317;28;20289;-85
2021/04/21 21:54:42;;;;;;;;;;;15.40;48.90;;;;;;5043060;28;19971;-84
2021/04/21 21:57:12;;;;;;;;;;;15.30;49.10;;;;;;5054414;28;20436;-84
2021/04/21 21:59:52;;;;;;;;;;;15.30;49.10;;;;;;5039538;28;20016;-84
2021/04/21 22:08:41;;;;;;;;;;;15.10;49.40;;;;;;5037883;28;19936;-83
2021/04/21 22:11:08;;;;;;;;;;;15.10;49.60;;;;;;5036026;28;19967;-81
2021/04/21 22:13:35;;;;;;;;;;;15.00;49.70;;;;;;5037031;28;19921;-82
2021/04/21 22:16:03;;;;;;;;;;;15.00;49.80;;;;;;5035773;28;19944;-84
2021/04/21 22:18:30;;;;;;;;;;;15.00;50.00;;;;;;5027725;28;19921;-84
2021/04/21 22:20:56;;;;;;;;;;;14.90;50.00;;;;;;5047343;28;20019;-83
2021/04/21 22:23:56;;;;;;;;;;;14.90;50.10;;;;;;5054311;28;19925;-85
2021/04/21 22:26:27;;;;;;;;;;;14.90;50.20;;;;;;5055773;28;19994;-83
2021/04/21 22:28:54;;;;;;;;;;;14.80;50.30;;;;;;5055457;28;19927;-84